createdAt,value
2018-09-29T00:11:10.584Z,3.07
2018-09-29T00:13:37.462Z,2.00
2018-09-29T00:16:04.422Z,2.20
2018-09-29T00:18:31.418Z,2.27
2018-09-29T00:20:58.264Z,2.57
2018-09-29T00:23:25.149Z,2.07
2018-09-29T00:25:52.024Z,2.47
2018-09-29T00:28:18.922Z,2.10
2018-09-29T00:30:45.824Z,1.93
2018-09-29T00:33:12.751Z,2.10
2018-09-29T00:35:39.619Z,2.30
2018-09-29T00:38:06.527Z,2.13
2018-09-29T00:40:33.404Z,2.97
2018-09-29T00:43:00.319Z,3.13
2018-09-29T00:45:27.255Z,2.33
2018-09-29T00:47:54.183Z,2.10
2018-09-29T00:50:21.105Z,2.10
2018-09-29T00:52:48.071Z,2.27
2018-09-29T00:55:14.983Z,1.93
2018-09-29T00:57:41.882Z,1.83
2018-09-29T01:00:08.819Z,2.40
2018-09-29T01:02:35.763Z,3.30
2018-09-29T01:05:03.374Z,3.00
2018-09-29T01:07:30.267Z,2.40
2018-09-29T01:09:57.189Z,3.10
2018-09-29T01:12:24.089Z,2.00
2018-09-29T01:14:50.980Z,2.63
2018-09-29T01:17:17.873Z,3.03
2018-09-29T01:19:44.890Z,3.40
2018-09-29T01:22:11.874Z,2.63
2018-09-29T01:24:38.877Z,2.57
2018-09-29T01:27:05.799Z,3.13
2018-09-29T01:29:32.749Z,2.90
2018-09-29T01:31:59.631Z,2.40
2018-09-29T01:34:26.651Z,2.20
2018-09-29T01:36:53.634Z,2.30
2018-09-29T01:39:20.546Z,2.30
2018-09-29T01:41:47.470Z,2.73
2018-09-29T01:44:14.406Z,2.30
2018-09-29T01:46:41.299Z,1.87
2018-09-29T01:49:08.249Z,2.70
2018-09-29T01:51:35.156Z,2.30
2018-09-29T01:54:02.063Z,2.30
2018-09-29T01:56:29.326Z,2.07
2018-09-29T01:58:56.220Z,1.90
2018-09-29T02:01:23.166Z,2.40
2018-09-29T02:03:50.056Z,2.20
2018-09-29T02:06:16.980Z,2.40
2018-09-29T02:08:43.872Z,2.50
2018-09-29T02:11:10.818Z,2.37
2018-09-29T02:13:37.704Z,2.03
2018-09-29T02:16:04.616Z,2.10
2018-09-29T02:18:31.515Z,1.90
2018-09-29T02:20:58.463Z,2.30
2018-09-29T02:23:25.360Z,2.10
2018-09-29T02:25:52.323Z,2.63
2018-09-29T02:28:19.212Z,2.90
2018-09-29T02:30:46.099Z,2.10
2018-09-29T02:33:13.003Z,1.90
2018-09-29T02:35:39.905Z,2.00
2018-09-29T02:38:06.810Z,1.97
2018-09-29T02:40:33.768Z,1.90
2018-09-29T02:43:00.789Z,2.53
2018-09-29T02:45:27.675Z,1.83
2018-09-29T02:47:54.618Z,1.97
2018-09-29T02:50:21.585Z,2.00
2018-09-29T02:52:48.489Z,2.10
2018-09-29T02:55:15.403Z,2.27
2018-09-29T02:57:42.340Z,2.00
2018-09-29T03:00:09.293Z,1.93
2018-09-29T03:02:36.202Z,2.20
2018-09-29T03:05:03.128Z,2.13
2018-09-29T03:07:30.036Z,2.13
2018-09-29T03:09:56.925Z,1.90
2018-09-29T03:12:23.850Z,2.27
2018-09-29T03:14:50.728Z,1.70
2018-09-29T03:17:17.647Z,2.03
2018-09-29T03:19:44.535Z,1.80
2018-09-29T03:22:11.435Z,2.10
2018-09-29T03:24:38.323Z,2.20
2018-09-29T03:27:05.469Z,2.10
2018-09-29T03:29:32.379Z,2.20
2018-09-29T03:31:59.362Z,2.20
2018-09-29T03:34:26.235Z,2.30
2018-09-29T03:36:53.212Z,2.20
2018-09-29T03:39:20.136Z,2.20
2018-09-29T03:41:47.045Z,2.07
2018-09-29T03:44:14.002Z,2.47
2018-09-29T03:46:40.920Z,2.30
2018-09-29T03:49:07.826Z,2.10
2018-09-29T03:51:34.729Z,2.43
2018-09-29T03:54:01.647Z,1.93
2018-09-29T03:56:28.593Z,2.30
2018-09-29T03:58:55.498Z,2.13
2018-09-29T04:01:22.390Z,2.40
2018-09-29T04:03:49.279Z,2.07
2018-09-29T04:06:17.250Z,2.43
2018-09-29T04:08:44.396Z,1.90
2018-09-29T04:11:11.348Z,2.80
2018-09-29T04:13:38.351Z,2.57
2018-09-29T04:16:05.293Z,2.50
2018-09-29T04:18:32.230Z,2.20
2018-09-29T04:20:59.166Z,1.87
2018-09-29T04:23:26.054Z,2.30
2018-09-29T04:25:53.009Z,2.20
2018-09-29T04:28:19.891Z,1.83
2018-09-29T04:30:46.781Z,1.70
2018-09-29T04:33:13.699Z,2.00
2018-09-29T04:35:40.593Z,1.90
2018-09-29T04:38:07.500Z,2.00
2018-09-29T04:40:34.535Z,2.00
2018-09-29T04:43:01.486Z,1.73
2018-09-29T04:45:28.331Z,2.17
2018-09-29T04:47:55.252Z,1.67
2018-09-29T04:50:22.190Z,2.10
2018-09-29T04:52:49.108Z,2.27
2018-09-29T04:55:16.050Z,2.30
2018-09-29T04:57:42.978Z,2.30
2018-09-29T05:00:09.929Z,2.40
2018-09-29T05:02:36.837Z,2.10
2018-09-29T05:05:04.026Z,2.17
2018-09-29T05:07:31.831Z,2.20
2018-09-29T05:09:58.715Z,4.00
2018-09-29T05:12:25.671Z,4.70
2018-09-29T05:14:52.579Z,2.90
2018-09-29T05:17:19.489Z,6.40
2018-09-29T05:19:46.411Z,3.80
2018-09-29T05:22:13.328Z,2.57
2018-09-29T05:24:40.418Z,3.07
2018-09-29T05:27:07.332Z,2.87
2018-09-29T05:29:34.313Z,2.47
2018-09-29T05:32:01.228Z,2.67
2018-09-29T05:34:28.140Z,2.43
2018-09-29T05:36:55.090Z,2.70
2018-09-29T05:39:22.017Z,2.40
2018-09-29T05:41:48.910Z,3.60
2018-09-29T05:44:15.850Z,3.33
2018-09-29T05:51:36.439Z,3.50
2018-09-29T05:54:03.390Z,3.47
2018-09-29T05:56:30.389Z,3.67
2018-09-29T05:58:57.331Z,5.00
2018-09-29T06:01:24.271Z,6.83
2018-09-29T06:03:51.256Z,6.90
2018-09-29T06:06:18.196Z,8.10
2018-09-29T06:08:45.102Z,10.50
2018-09-29T06:11:12.009Z,8.47
2018-09-29T06:13:38.936Z,5.60
2018-09-29T06:16:06.063Z,6.77
2018-09-29T06:18:33.146Z,7.23
2018-09-29T06:21:00.377Z,6.60
2018-09-29T06:23:27.276Z,8.33
2018-09-29T06:25:54.381Z,9.17
2018-09-29T06:28:21.306Z,7.20
2018-09-29T06:30:48.289Z,5.30
2018-09-29T06:33:15.329Z,7.27
2018-09-29T06:35:42.289Z,4.57
2018-09-29T06:38:09.709Z,4.93
2018-09-29T06:40:37.210Z,5.90
2018-09-29T06:43:04.679Z,5.47
2018-09-29T06:45:31.616Z,7.60
2018-09-29T06:47:58.592Z,6.07
2018-09-29T06:50:25.509Z,3.87
2018-09-29T06:52:52.441Z,3.80
2018-09-29T06:55:19.458Z,3.03
2018-09-29T06:57:46.388Z,6.30
2018-09-29T07:00:13.312Z,7.07
2018-09-29T07:02:40.260Z,4.17
2018-09-29T07:05:07.162Z,3.17
2018-09-29T07:07:34.068Z,3.27
2018-09-29T07:10:01.004Z,3.27
2018-09-29T07:12:27.942Z,2.93
2018-09-29T07:14:54.974Z,3.03
2018-09-29T07:17:21.883Z,3.10
2018-09-29T07:19:48.823Z,2.87
2018-09-29T07:22:15.749Z,3.03
2018-09-29T07:24:42.683Z,2.67
2018-09-29T07:27:09.615Z,2.57
2018-09-29T07:29:36.553Z,2.60
2018-09-29T07:32:03.500Z,2.93
2018-09-29T07:34:30.441Z,2.47
2018-09-29T07:36:57.417Z,2.30
2018-09-29T07:39:24.349Z,2.60
2018-09-29T07:41:51.245Z,5.63
2018-09-29T07:44:18.167Z,5.23
2018-09-29T07:46:45.080Z,5.37
2018-09-29T07:49:12.117Z,4.50
2018-09-29T07:51:39.064Z,4.10
2018-09-29T07:54:05.993Z,3.57
2018-09-29T07:56:32.993Z,3.10
2018-09-29T07:58:59.969Z,3.93
2018-09-29T08:01:26.887Z,6.30
2018-09-29T08:03:53.887Z,4.87
2018-09-29T08:06:20.857Z,3.63
2018-09-29T08:08:47.732Z,3.10
2018-09-29T08:11:14.680Z,3.13
2018-09-29T08:13:41.690Z,2.47
2018-09-29T08:16:08.776Z,2.80
2018-09-29T08:18:35.725Z,3.30
2018-09-29T08:21:02.659Z,3.33
2018-09-29T08:23:30.216Z,3.83
2018-09-29T08:25:57.223Z,5.40
2018-09-29T08:28:24.173Z,3.97
2018-09-29T08:30:51.163Z,3.50
2018-09-29T08:33:18.214Z,3.20
2018-09-29T08:35:45.152Z,2.77
2018-09-29T08:38:12.193Z,3.07
2018-09-29T08:40:39.139Z,2.70
2018-09-29T08:43:06.051Z,2.57
2018-09-29T08:45:33.048Z,2.47
2018-09-29T08:47:59.996Z,2.30
2018-09-29T08:50:27.115Z,1.97
2018-09-29T08:52:54.095Z,2.70
2018-09-29T08:55:21.096Z,2.00
2018-09-29T08:57:48.060Z,2.00
2018-09-29T09:00:15.090Z,2.30
2018-09-29T09:02:42.152Z,2.07
2018-09-29T09:05:09.102Z,1.93
2018-09-29T09:07:35.996Z,2.33
2018-09-29T09:10:02.969Z,3.53
2018-09-29T09:12:29.923Z,2.47
2018-09-29T09:14:56.876Z,2.00
2018-09-29T09:17:23.803Z,2.10
2018-09-29T09:19:50.724Z,1.70
2018-09-29T09:22:17.635Z,1.40
2018-09-29T09:24:44.552Z,1.37
2018-09-29T09:27:11.475Z,1.60
2018-09-29T09:29:38.603Z,2.23
2018-09-29T09:32:05.906Z,2.10
2018-09-29T09:34:32.892Z,2.17
2018-09-29T09:36:59.869Z,1.73
2018-09-29T09:39:26.877Z,1.67
2018-09-29T09:41:53.900Z,1.60
2018-09-29T09:44:20.825Z,1.70
2018-09-29T09:47:13.459Z,1.60
2018-09-29T09:49:40.516Z,1.90
2018-09-29T09:52:07.445Z,1.70
2018-09-29T09:54:34.398Z,2.23
2018-09-29T09:57:01.993Z,2.00
2018-09-29T09:59:28.991Z,1.50
2018-09-29T10:02:01.752Z,1.47
2018-09-29T10:04:28.776Z,1.70
2018-09-29T10:06:55.725Z,2.00
2018-09-29T10:09:22.709Z,1.60
2018-09-29T10:11:49.709Z,1.57
2018-09-29T10:14:16.717Z,1.93
2018-09-29T10:16:43.687Z,1.60
2018-09-29T10:19:10.683Z,1.67
2018-09-29T10:21:38.305Z,1.33
2018-09-29T10:24:05.367Z,1.13
2018-09-29T10:26:32.371Z,1.33
2018-09-29T10:28:59.323Z,1.50
2018-09-29T10:37:18.470Z,1.40
2018-09-29T10:39:45.480Z,1.60
2018-09-29T10:42:12.471Z,1.27
2018-09-29T10:44:39.410Z,1.33
2018-09-29T10:47:06.527Z,1.30
2018-09-29T10:49:33.514Z,1.50
2018-09-29T10:52:00.488Z,1.60
2018-09-29T10:54:27.512Z,1.57
2018-09-29T10:56:55.228Z,1.20
2018-09-29T10:59:22.216Z,1.40
2018-09-29T11:01:49.188Z,1.40
2018-09-29T11:04:16.137Z,1.43
2018-09-29T11:06:43.073Z,1.47
2018-09-29T11:09:11.111Z,1.60
2018-09-29T11:11:41.452Z,1.10
2018-09-29T11:14:08.561Z,1.63
2018-09-29T11:16:35.536Z,1.40
2018-09-29T11:19:02.725Z,1.60
2018-09-29T11:21:30.594Z,1.50
2018-09-29T11:23:57.589Z,1.60
2018-09-29T11:26:25.803Z,1.50
2018-09-29T11:28:52.992Z,1.60
2018-09-29T11:31:19.970Z,1.30
2018-09-29T11:33:47.040Z,1.40
2018-09-29T11:36:15.264Z,1.40
2018-09-29T11:38:42.240Z,1.17
2018-09-29T11:41:10.600Z,1.60
2018-09-29T11:43:37.585Z,1.53
2018-09-29T11:46:07.046Z,1.27
2018-09-29T11:48:34.328Z,1.10
2018-09-29T11:51:01.248Z,1.30
2018-09-29T11:53:28.232Z,1.50
2018-09-29T11:55:55.249Z,1.07
2018-09-29T11:58:22.297Z,1.40
2018-09-29T12:00:49.444Z,1.30
2018-09-29T12:03:16.403Z,1.47
2018-09-29T12:05:43.458Z,1.40
2018-09-29T12:08:10.675Z,0.97
2018-09-29T12:10:37.558Z,1.47
2018-09-29T12:13:04.447Z,1.50
2018-09-29T12:15:31.330Z,1.47
2018-09-29T12:17:58.234Z,1.10
2018-09-29T12:20:25.104Z,1.20
2018-09-29T12:22:52.100Z,1.30
2018-09-29T12:25:19.050Z,1.43
2018-09-29T12:27:46.203Z,1.40
2018-09-29T12:30:13.085Z,1.40
2018-09-29T12:32:39.993Z,1.37
2018-09-29T12:35:06.926Z,1.30
2018-09-29T12:37:33.956Z,1.00
2018-09-29T12:40:00.796Z,1.40
2018-09-29T12:42:27.670Z,1.10
2018-09-29T12:44:54.644Z,1.20
2018-09-29T12:47:21.517Z,1.60
2018-09-29T12:49:48.460Z,1.67
2018-09-29T12:52:15.338Z,1.60
2018-09-29T12:54:42.326Z,1.70
2018-09-29T12:57:09.291Z,1.90
2018-09-29T12:59:36.179Z,1.60
2018-09-29T13:02:03.073Z,1.57
2018-09-29T13:04:29.971Z,1.87
2018-09-29T13:06:56.815Z,1.50
2018-09-29T13:09:23.683Z,1.27
2018-09-29T13:11:50.603Z,1.27
2018-09-29T13:14:17.534Z,1.30
2018-09-29T13:16:44.446Z,1.50
2018-09-29T13:19:11.316Z,1.40
2018-09-29T13:21:38.216Z,1.10
2018-09-29T13:24:05.080Z,1.20
2018-09-29T13:26:32.004Z,1.20
2018-09-29T13:28:58.892Z,1.30
2018-09-29T13:31:25.834Z,1.20
2018-09-29T13:33:52.730Z,0.97
2018-09-29T13:36:19.651Z,1.37
2018-09-29T13:38:48.207Z,1.13
2018-09-29T13:41:15.316Z,1.20
2018-09-29T13:43:42.270Z,1.20
2018-09-29T13:46:09.469Z,1.60
2018-09-29T13:48:36.398Z,1.33
2018-09-29T13:51:03.279Z,1.20
2018-09-29T13:53:30.210Z,1.00
2018-09-29T13:55:57.105Z,1.20
2018-09-29T13:58:24.029Z,1.47
2018-09-29T14:00:51.067Z,1.03
2018-09-29T14:03:18.019Z,1.17
2018-09-29T14:05:44.963Z,1.03
2018-09-29T14:08:11.891Z,1.20
2018-09-29T14:10:38.765Z,1.30
2018-09-29T14:13:05.664Z,1.10
2018-09-29T14:15:32.543Z,1.70
2018-09-29T14:17:59.427Z,1.40
2018-09-29T14:20:26.342Z,1.40
2018-09-29T14:22:53.252Z,1.37
2018-09-29T14:25:20.144Z,1.30
2018-09-29T14:27:47.070Z,1.20
2018-09-29T14:30:14.046Z,1.10
2018-09-29T14:32:40.838Z,1.30
2018-09-29T14:35:07.727Z,2.13
2018-09-29T14:37:34.610Z,1.70
2018-09-29T14:40:01.534Z,4.50
2018-09-29T14:42:28.467Z,6.83
2018-09-29T14:44:55.411Z,6.40
2018-09-29T14:47:22.284Z,2.53
2018-09-29T14:49:49.186Z,3.67
2018-09-29T14:52:16.121Z,3.60
2018-09-29T14:54:43.081Z,5.37
2018-09-29T14:57:09.985Z,5.40
2018-09-29T14:59:36.847Z,7.97
2018-09-29T15:02:03.955Z,3.47
2018-09-29T15:09:23.062Z,1.70
2018-09-29T15:11:49.943Z,9.77
2018-09-29T15:14:16.878Z,6.93
2018-09-29T15:16:43.840Z,10.23
2018-09-29T15:19:10.862Z,8.73
2018-09-29T15:21:37.816Z,2.80
2018-09-29T15:24:04.791Z,3.07
2018-09-29T15:26:31.754Z,1.63
2018-09-29T15:28:58.688Z,1.30
2018-09-29T15:31:25.628Z,1.37
2018-09-29T15:33:52.623Z,1.10
2018-09-29T15:36:19.567Z,1.33
2018-09-29T15:38:47.423Z,1.50
2018-09-29T15:41:14.441Z,1.10
2018-09-29T15:43:41.406Z,1.37
2018-09-29T15:49:04.708Z,1.20
2018-09-29T15:51:31.703Z,1.10
2018-09-29T15:53:58.666Z,1.63
2018-09-29T15:56:26.443Z,5.40
2018-09-29T15:58:53.392Z,3.83
2018-09-29T16:01:22.617Z,2.07
2018-09-29T16:03:49.604Z,3.03
2018-09-29T16:06:16.572Z,2.40
2018-09-29T16:08:43.545Z,1.80
2018-09-29T16:11:10.688Z,1.70
2018-09-29T16:13:37.692Z,1.60
2018-09-29T16:16:05.402Z,1.60
2018-09-29T16:18:32.413Z,1.47
2018-09-29T16:20:59.379Z,5.53
2018-09-29T16:23:26.390Z,3.60
2018-09-29T16:25:53.349Z,4.12
2018-09-29T16:28:20.273Z,5.17
2018-09-29T16:30:47.255Z,7.17
2018-09-29T16:33:14.214Z,5.23
2018-09-29T16:35:41.257Z,5.00
2018-09-29T16:38:08.214Z,5.33
2018-09-29T16:40:35.190Z,4.80
2018-09-29T16:43:03.499Z,9.47
2018-09-29T16:45:30.477Z,3.43
2018-09-29T16:47:57.493Z,2.80
2018-09-29T16:50:24.426Z,2.03
2018-09-29T16:52:52.582Z,2.00
2018-09-29T16:55:19.537Z,1.60
2018-09-29T16:57:46.465Z,1.60
2018-09-29T17:00:14.304Z,1.70
2018-09-29T17:02:41.247Z,1.70
2018-09-29T17:05:08.197Z,1.50
2018-09-29T17:07:35.131Z,1.63
2018-09-29T17:10:02.689Z,2.47
2018-09-29T17:12:29.691Z,1.43
2018-09-29T17:14:56.658Z,1.50
2018-09-29T17:17:23.646Z,1.50
2018-09-29T17:19:51.632Z,1.60
2018-09-29T17:22:18.546Z,1.57
2018-09-29T17:24:45.486Z,1.67
2018-09-29T17:27:13.212Z,1.60
2018-09-29T17:29:40.214Z,3.77
2018-09-29T17:32:09.434Z,5.77
2018-09-29T17:34:37.508Z,4.63
2018-09-29T17:37:04.483Z,3.03
2018-09-29T17:39:31.417Z,3.40
2018-09-29T17:41:58.424Z,4.13
2018-09-29T17:44:25.421Z,3.10
2018-09-29T17:46:53.155Z,3.53
2018-09-29T17:49:20.146Z,2.63
2018-09-29T17:51:47.079Z,2.97
2018-09-29T17:59:09.058Z,2.37
2018-09-29T18:01:35.969Z,2.60
2018-09-29T18:04:02.974Z,2.80
2018-09-29T18:06:29.861Z,5.07
2018-09-29T18:08:57.689Z,14.70
2018-09-29T18:11:24.637Z,11.87
2018-09-29T18:13:51.578Z,25.10
2018-09-29T18:16:18.592Z,17.30
2018-09-29T18:18:45.544Z,28.00
2018-09-29T18:21:12.572Z,11.63
2018-09-29T18:23:39.493Z,13.50
2018-09-29T18:26:06.490Z,15.80
2018-09-29T18:28:33.424Z,11.50
2018-09-29T18:31:00.395Z,11.40
2018-09-29T18:33:27.320Z,9.80
2018-09-29T18:35:55.035Z,11.17
2018-09-29T18:38:21.880Z,10.83
2018-09-29T18:40:48.926Z,15.03
2018-09-29T18:43:15.889Z,25.33
2018-09-29T18:45:42.817Z,22.33
2018-09-29T18:48:09.907Z,29.90
2018-09-29T18:50:36.891Z,23.57
2018-09-29T18:53:03.835Z,18.67
2018-09-29T18:55:30.773Z,12.83
2018-09-29T18:57:57.681Z,12.33
2018-09-29T19:00:24.590Z,12.17
2018-09-29T19:02:51.527Z,19.47
2018-09-29T19:07:40.896Z,29.33
2018-09-29T19:10:08.006Z,22.00
2018-09-29T19:12:34.906Z,16.77
2018-09-29T19:15:01.855Z,11.83
2018-09-29T19:17:28.774Z,11.40
2018-09-29T19:19:55.715Z,10.83
2018-09-29T19:22:22.646Z,10.93
2018-09-29T19:24:49.567Z,23.80
2018-09-29T19:27:16.509Z,24.53
2018-09-29T19:29:43.486Z,12.30
2018-09-29T19:32:10.447Z,11.17
2018-09-29T19:34:37.347Z,18.90
2018-09-29T19:37:04.331Z,13.70
2018-09-29T19:39:31.276Z,16.53
2018-09-29T19:41:58.227Z,16.57
2018-09-29T19:44:25.167Z,10.17
2018-09-29T19:46:52.091Z,9.13
2018-09-29T19:49:19.050Z,8.17
2018-09-29T19:51:45.957Z,9.00
2018-09-29T19:54:12.909Z,8.77
2018-09-29T19:56:39.851Z,8.77
2018-09-29T19:59:06.829Z,7.83
2018-09-29T20:01:33.801Z,8.57
2018-09-29T20:04:00.772Z,7.93
2018-09-29T20:06:28.752Z,8.10
2018-09-29T20:08:55.652Z,7.60
2018-09-29T20:11:22.782Z,7.07
2018-09-29T20:13:49.698Z,7.47
2018-09-29T20:16:16.656Z,7.40
2018-09-29T20:18:43.588Z,7.33
2018-09-29T20:21:10.582Z,6.23
2018-09-29T20:23:37.549Z,6.27
2018-09-29T20:26:05.186Z,7.73
2018-09-29T20:28:32.192Z,6.50
2018-09-29T20:30:59.279Z,6.20
2018-09-29T20:33:26.173Z,6.70
2018-09-29T20:35:53.093Z,6.43
2018-09-29T20:38:20.021Z,6.90
2018-09-29T20:40:47.011Z,7.20
2018-09-29T20:43:13.965Z,6.40
2018-09-29T20:45:41.001Z,6.37
2018-09-29T20:48:07.939Z,7.00
2018-09-29T20:50:34.874Z,6.73
2018-09-29T20:53:01.828Z,6.67
2018-09-29T20:55:28.776Z,6.93
2018-09-29T20:57:55.853Z,7.53
2018-09-29T21:11:53.852Z,6.00
2018-09-29T21:14:20.836Z,6.00
2018-09-29T21:16:47.791Z,5.63
2018-09-29T21:19:14.722Z,5.10
2018-09-29T21:21:41.619Z,4.70
2018-09-29T21:24:08.518Z,4.90
2018-09-29T21:26:35.465Z,5.07
2018-09-29T21:29:02.379Z,4.00
2018-09-29T21:31:29.577Z,4.33
2018-09-29T21:33:56.526Z,4.40
2018-09-29T21:36:23.458Z,3.90
2018-09-29T21:38:50.426Z,4.00
2018-09-29T21:41:17.372Z,4.37
2018-09-29T21:43:44.281Z,4.07
2018-09-29T21:46:11.184Z,4.40
2018-09-29T21:48:38.106Z,4.47
2018-09-29T21:51:05.131Z,4.40
2018-09-29T21:53:32.181Z,4.77
2018-09-29T21:55:59.156Z,4.47
2018-09-29T21:58:26.075Z,4.70
2018-09-29T22:00:52.960Z,5.07
2018-09-29T22:03:19.922Z,4.67
2018-09-29T22:05:46.845Z,5.07
2018-09-29T22:08:14.050Z,6.07
2018-09-29T22:10:41.042Z,6.53
2018-09-29T22:13:07.951Z,6.27
2018-09-29T22:15:34.911Z,6.10
2018-09-29T22:18:01.824Z,5.97
2018-09-29T22:25:20.877Z,6.60
2018-09-29T22:27:47.781Z,6.43
2018-09-29T22:30:14.744Z,6.57
2018-09-29T22:32:41.697Z,7.33
2018-09-29T22:35:08.624Z,7.00
2018-09-29T22:37:35.576Z,7.53
2018-09-29T22:40:02.499Z,6.30
2018-09-29T22:42:29.453Z,5.60
2018-09-29T22:44:56.714Z,5.70
2018-09-29T22:47:23.682Z,5.37
2018-09-29T22:49:50.590Z,4.87
2018-09-29T22:52:17.527Z,4.23
2018-09-29T22:54:44.454Z,4.30
2018-09-29T22:57:11.342Z,3.83
2018-09-29T22:59:38.257Z,4.67
2018-09-29T23:02:05.726Z,3.40
2018-09-29T23:04:32.682Z,4.20
2018-09-29T23:06:59.595Z,3.90
2018-09-29T23:09:26.631Z,3.87
2018-09-29T23:11:53.539Z,3.80
2018-09-29T23:14:20.429Z,4.00
2018-09-29T23:16:47.553Z,4.43
2018-09-29T23:19:14.625Z,3.27
2018-09-29T23:21:41.485Z,4.10
2018-09-29T23:24:08.436Z,3.73
2018-09-29T23:26:35.328Z,3.60
2018-09-29T23:29:02.339Z,3.23
2018-09-29T23:31:29.316Z,4.00
2018-09-29T23:33:56.257Z,3.80
2018-09-29T23:36:23.169Z,3.80
2018-09-29T23:38:50.180Z,3.67
2018-09-29T23:41:17.068Z,3.87
2018-09-29T23:43:43.944Z,4.17
2018-09-29T23:46:10.886Z,3.60
2018-09-29T23:48:37.812Z,3.60
2018-09-29T23:51:04.777Z,3.90
2018-09-29T23:53:31.705Z,3.57
2018-09-29T23:55:58.602Z,3.80
2018-09-29T23:58:25.494Z,4.00
